sensor_id;sensor_type;location;lat;lon;timestamp;P1;durP1;ratioP1;P2;durP2;ratioP2
65822;SDS011;52585;47.566;19.056;2022-10-18T00:02:08;11.90;;;8.10;;
65822;SDS011;52585;47.566;19.056;2022-10-18T00:04:33;13.00;;;8.10;;
65822;SDS011;52585;47.566;19.056;2022-10-18T00:06:59;10.70;;;8.30;;
65822;SDS011;52585;47.566;19.056;2022-10-18T00:09:25;12.40;;;8.30;;
65822;SDS011;52585;47.566;19.056;2022-10-18T00:11:52;14.20;;;8.70;;
65822;SDS011;52585;47.566;19.056;2022-10-18T00:14:19;10.10;;;7.80;;
65822;SDS011;52585;47.566;19.056;2022-10-18T00:16:45;9.40;;;7.70;;
65822;SDS011;52585;47.566;19.056;2022-10-18T00:19:10;14.20;;;8.50;;
65822;SDS011;52585;47.566;19.056;2022-10-18T00:21:36;12.90;;;8.50;;
65822;SDS011;52585;47.566;19.056;2022-10-18T00:24:02;14.40;;;7.90;;
65822;SDS011;52585;47.566;19.056;2022-10-18T00:26:30;10.30;;;8.20;;
65822;SDS011;52585;47.566;19.056;2022-10-18T00:28:59;12.50;;;7.80;;
65822;SDS011;52585;47.566;19.056;2022-10-18T00:31:32;11.10;;;7.70;;
65822;SDS011;52585;47.566;19.056;2022-10-18T00:34:10;13.90;;;8.80;;
65822;SDS011;52585;47.566;19.056;2022-10-18T00:36:38;10.40;;;8.10;;
65822;SDS011;52585;47.566;19.056;2022-10-18T00:39:09;10.60;;;8.40;;
65822;SDS011;52585;47.566;19.056;2022-10-18T00:41:39;12.40;;;8.50;;
65822;SDS011;52585;47.566;19.056;2022-10-18T00:46:50;13.30;;;8.60;;
65822;SDS011;52585;47.566;19.056;2022-10-18T00:49:24;11.70;;;8.50;;
65822;SDS011;52585;47.566;19.056;2022-10-18T00:52:08;9.00;;;7.40;;
65822;SDS011;52585;47.566;19.056;2022-10-18T00:54:48;11.00;;;7.50;;
65822;SDS011;52585;47.566;19.056;2022-10-18T00:57:17;10.80;;;7.80;;
65822;SDS011;52585;47.566;19.056;2022-10-18T00:59:44;9.30;;;7.40;;
65822;SDS011;52585;47.566;19.056;2022-10-18T01:02:12;13.70;;;8.40;;
65822;SDS011;52585;47.566;19.056;2022-10-18T01:04:44;10.20;;;7.90;;
65822;SDS011;52585;47.566;19.056;2022-10-18T01:10:38;13.60;;;7.60;;
65822;SDS011;52585;47.566;19.056;2022-10-18T01:21:51;11.30;;;7.90;;
65822;SDS011;52585;47.566;19.056;2022-10-18T01:32:23;9.50;;;6.50;;
65822;SDS011;52585;47.566;19.056;2022-10-18T01:34:58;12.20;;;6.60;;
65822;SDS011;52585;47.566;19.056;2022-10-18T01:37:28;9.80;;;7.00;;
65822;SDS011;52585;47.566;19.056;2022-10-18T01:39:58;9.40;;;6.90;;
65822;SDS011;52585;47.566;19.056;2022-10-18T01:42:28;11.20;;;6.80;;
65822;SDS011;52585;47.566;19.056;2022-10-18T01:44:55;8.80;;;6.90;;
65822;SDS011;52585;47.566;19.056;2022-10-18T01:47:22;10.80;;;7.20;;
65822;SDS011;52585;47.566;19.056;2022-10-18T01:49:49;9.60;;;6.60;;
65822;SDS011;52585;47.566;19.056;2022-10-18T01:52:25;9.20;;;6.80;;
65822;SDS011;52585;47.566;19.056;2022-10-18T01:54:52;10.80;;;6.90;;
65822;SDS011;52585;47.566;19.056;2022-10-18T02:05:57;8.60;;;6.70;;
65822;SDS011;52585;47.566;19.056;2022-10-18T02:08:43;9.40;;;6.50;;
65822;SDS011;52585;47.566;19.056;2022-10-18T02:11:21;11.90;;;6.80;;
65822;SDS011;52585;47.566;19.056;2022-10-18T02:13:57;15.90;;;6.50;;
65822;SDS011;52585;47.566;19.056;2022-10-18T02:16:33;7.10;;;6.20;;
65822;SDS011;52585;47.566;19.056;2022-10-18T02:19:14;8.60;;;6.70;;
65822;SDS011;52585;47.566;19.056;2022-10-18T02:21:51;8.00;;;6.90;;
65822;SDS011;52585;47.566;19.056;2022-10-18T02:24:20;8.10;;;6.60;;
65822;SDS011;52585;47.566;19.056;2022-10-18T02:26:50;10.10;;;6.70;;
65822;SDS011;52585;47.566;19.056;2022-10-18T02:29:16;9.00;;;6.90;;
65822;SDS011;52585;47.566;19.056;2022-10-18T02:34:24;10.80;;;6.80;;
65822;SDS011;52585;47.566;19.056;2022-10-18T02:36:59;10.30;;;7.00;;
65822;SDS011;52585;47.566;19.056;2022-10-18T02:39:35;7.70;;;6.30;;
65822;SDS011;52585;47.566;19.056;2022-10-18T02:42:04;7.80;;;6.00;;
65822;SDS011;52585;47.566;19.056;2022-10-18T02:44:34;7.80;;;6.10;;
65822;SDS011;52585;47.566;19.056;2022-10-18T02:47:03;7.90;;;6.10;;
65822;SDS011;52585;47.566;19.056;2022-10-18T02:49:30;9.40;;;6.10;;
65822;SDS011;52585;47.566;19.056;2022-10-18T02:51:55;11.50;;;6.30;;
65822;SDS011;52585;47.566;19.056;2022-10-18T02:54:22;8.90;;;6.20;;
65822;SDS011;52585;47.566;19.056;2022-10-18T02:56:50;7.50;;;6.50;;
65822;SDS011;52585;47.566;19.056;2022-10-18T02:59:16;7.90;;;6.50;;
65822;SDS011;52585;47.566;19.056;2022-10-18T03:01:43;8.80;;;6.60;;
65822;SDS011;52585;47.566;19.056;2022-10-18T03:04:10;9.80;;;6.60;;
65822;SDS011;52585;47.566;19.056;2022-10-18T03:06:36;9.80;;;6.50;;
65822;SDS011;52585;47.566;19.056;2022-10-18T03:09:04;10.00;;;6.80;;
65822;SDS011;52585;47.566;19.056;2022-10-18T03:11:31;14.40;;;6.80;;
65822;SDS011;52585;47.566;19.056;2022-10-18T03:13:58;8.10;;;6.00;;
65822;SDS011;52585;47.566;19.056;2022-10-18T03:16:24;8.30;;;6.90;;
65822;SDS011;52585;47.566;19.056;2022-10-18T03:18:50;8.10;;;6.90;;
65822;SDS011;52585;47.566;19.056;2022-10-18T03:21:16;8.30;;;6.40;;
65822;SDS011;52585;47.566;19.056;2022-10-18T03:23:42;7.90;;;6.90;;
65822;SDS011;52585;47.566;19.056;2022-10-18T03:26:08;10.70;;;6.70;;
65822;SDS011;52585;47.566;19.056;2022-10-18T03:28:34;8.80;;;6.80;;
65822;SDS011;52585;47.566;19.056;2022-10-18T03:31:01;8.70;;;6.70;;
65822;SDS011;52585;47.566;19.056;2022-10-18T03:33:28;8.60;;;6.90;;
65822;SDS011;52585;47.566;19.056;2022-10-18T03:35:56;8.10;;;7.00;;
65822;SDS011;52585;47.566;19.056;2022-10-18T03:38:22;9.70;;;6.70;;
65822;SDS011;52585;47.566;19.056;2022-10-18T03:40:48;10.50;;;7.10;;
65822;SDS011;52585;47.566;19.056;2022-10-18T03:43:14;10.50;;;7.60;;
65822;SDS011;52585;47.566;19.056;2022-10-18T03:45:41;7.80;;;6.90;;
65822;SDS011;52585;47.566;19.056;2022-10-18T03:48:09;8.60;;;6.60;;
65822;SDS011;52585;47.566;19.056;2022-10-18T03:50:35;8.30;;;6.50;;
65822;SDS011;52585;47.566;19.056;2022-10-18T03:53:02;7.20;;;6.40;;
65822;SDS011;52585;47.566;19.056;2022-10-18T03:55:30;10.00;;;6.20;;
65822;SDS011;52585;47.566;19.056;2022-10-18T03:57:56;12.40;;;6.60;;
65822;SDS011;52585;47.566;19.056;2022-10-18T04:00:22;9.10;;;6.50;;
65822;SDS011;52585;47.566;19.056;2022-10-18T04:02:49;7.60;;;6.70;;
65822;SDS011;52585;47.566;19.056;2022-10-18T04:05:15;11.30;;;6.90;;
65822;SDS011;52585;47.566;19.056;2022-10-18T04:07:41;8.70;;;6.60;;
65822;SDS011;52585;47.566;19.056;2022-10-18T04:10:07;12.50;;;7.00;;
65822;SDS011;52585;47.566;19.056;2022-10-18T04:12:33;8.20;;;6.90;;
65822;SDS011;52585;47.566;19.056;2022-10-18T04:14:59;9.20;;;7.00;;
65822;SDS011;52585;47.566;19.056;2022-10-18T04:17:24;8.10;;;6.40;;
65822;SDS011;52585;47.566;19.056;2022-10-18T04:19:50;12.80;;;6.70;;
65822;SDS011;52585;47.566;19.056;2022-10-18T04:22:16;9.80;;;7.10;;
65822;SDS011;52585;47.566;19.056;2022-10-18T04:24:42;9.50;;;6.90;;
65822;SDS011;52585;47.566;19.056;2022-10-18T04:27:09;11.60;;;7.60;;
65822;SDS011;52585;47.566;19.056;2022-10-18T04:29:34;12.10;;;7.40;;
65822;SDS011;52585;47.566;19.056;2022-10-18T04:32:00;9.90;;;6.50;;
65822;SDS011;52585;47.566;19.056;2022-10-18T04:34:27;10.60;;;7.60;;
65822;SDS011;52585;47.566;19.056;2022-10-18T04:36:54;8.60;;;7.10;;
65822;SDS011;52585;47.566;19.056;2022-10-18T04:39:20;11.30;;;6.50;;
65822;SDS011;52585;47.566;19.056;2022-10-18T04:41:46;9.10;;;7.10;;
65822;SDS011;52585;47.566;19.056;2022-10-18T04:44:13;8.80;;;7.20;;
65822;SDS011;52585;47.566;19.056;2022-10-18T04:46:38;13.10;;;6.90;;
65822;SDS011;52585;47.566;19.056;2022-10-18T04:49:04;12.10;;;7.10;;
65822;SDS011;52585;47.566;19.056;2022-10-18T04:51:30;11.80;;;8.10;;
65822;SDS011;52585;47.566;19.056;2022-10-18T04:53:56;13.30;;;8.50;;
65822;SDS011;52585;47.566;19.056;2022-10-18T04:56:22;13.40;;;7.70;;
65822;SDS011;52585;47.566;19.056;2022-10-18T04:58:49;10.80;;;8.10;;
65822;SDS011;52585;47.566;19.056;2022-10-18T05:01:15;12.20;;;8.90;;
65822;SDS011;52585;47.566;19.056;2022-10-18T05:03:41;12.60;;;9.80;;
65822;SDS011;52585;47.566;19.056;2022-10-18T05:06:07;14.80;;;11.00;;
65822;SDS011;52585;47.566;19.056;2022-10-18T05:08:34;14.00;;;10.20;;
65822;SDS011;52585;47.566;19.056;2022-10-18T05:11:01;16.20;;;10.40;;
65822;SDS011;52585;47.566;19.056;2022-10-18T05:13:28;13.50;;;8.50;;
65822;SDS011;52585;47.566;19.056;2022-10-18T05:15:55;14.80;;;9.40;;
65822;SDS011;52585;47.566;19.056;2022-10-18T05:18:23;13.80;;;8.50;;
65822;SDS011;52585;47.566;19.056;2022-10-18T05:20:49;9.90;;;7.30;;
65822;SDS011;52585;47.566;19.056;2022-10-18T05:23:15;11.00;;;7.40;;
65822;SDS011;52585;47.566;19.056;2022-10-18T05:25:41;12.30;;;8.10;;
65822;SDS011;52585;47.566;19.056;2022-10-18T05:28:08;11.70;;;7.70;;
65822;SDS011;52585;47.566;19.056;2022-10-18T05:30:38;14.30;;;7.40;;
65822;SDS011;52585;47.566;19.056;2022-10-18T05:33:05;10.70;;;7.90;;
65822;SDS011;52585;47.566;19.056;2022-10-18T05:35:33;10.40;;;7.80;;
65822;SDS011;52585;47.566;19.056;2022-10-18T05:38:05;13.00;;;7.70;;
65822;SDS011;52585;47.566;19.056;2022-10-18T05:40:32;13.00;;;7.60;;
65822;SDS011;52585;47.566;19.056;2022-10-18T05:42:58;9.70;;;7.40;;
65822;SDS011;52585;47.566;19.056;2022-10-18T05:45:24;12.50;;;7.30;;
65822;SDS011;52585;47.566;19.056;2022-10-18T05:47:50;10.70;;;7.20;;
65822;SDS011;52585;47.566;19.056;2022-10-18T05:50:16;16.80;;;8.00;;
65822;SDS011;52585;47.566;19.056;2022-10-18T05:52:43;13.40;;;8.50;;
65822;SDS011;52585;47.566;19.056;2022-10-18T05:55:09;11.70;;;7.50;;
65822;SDS011;52585;47.566;19.056;2022-10-18T05:57:34;11.40;;;7.80;;
65822;SDS011;52585;47.566;19.056;2022-10-18T06:00:00;12.20;;;8.20;;
65822;SDS011;52585;47.566;19.056;2022-10-18T06:02:26;16.80;;;8.30;;
65822;SDS011;52585;47.566;19.056;2022-10-18T06:04:52;16.20;;;8.30;;
65822;SDS011;52585;47.566;19.056;2022-10-18T06:07:18;15.10;;;8.80;;
65822;SDS011;52585;47.566;19.056;2022-10-18T06:09:43;16.30;;;8.40;;
65822;SDS011;52585;47.566;19.056;2022-10-18T06:12:09;13.90;;;8.40;;
65822;SDS011;52585;47.566;19.056;2022-10-18T06:14:36;11.40;;;7.50;;
65822;SDS011;52585;47.566;19.056;2022-10-18T06:17:03;12.20;;;8.00;;
65822;SDS011;52585;47.566;19.056;2022-10-18T06:19:30;15.00;;;7.90;;
65822;SDS011;52585;47.566;19.056;2022-10-18T06:21:56;19.50;;;8.10;;
65822;SDS011;52585;47.566;19.056;2022-10-18T06:24:22;12.00;;;7.40;;
65822;SDS011;52585;47.566;19.056;2022-10-18T06:26:47;12.80;;;7.70;;
65822;SDS011;52585;47.566;19.056;2022-10-18T06:29:14;14.00;;;8.00;;
65822;SDS011;52585;47.566;19.056;2022-10-18T06:31:40;20.70;;;8.70;;
65822;SDS011;52585;47.566;19.056;2022-10-18T06:34:05;13.70;;;9.30;;
65822;SDS011;52585;47.566;19.056;2022-10-18T06:36:31;13.00;;;9.10;;
65822;SDS011;52585;47.566;19.056;2022-10-18T06:38:57;12.70;;;8.20;;
65822;SDS011;52585;47.566;19.056;2022-10-18T06:41:24;13.40;;;8.00;;
65822;SDS011;52585;47.566;19.056;2022-10-18T06:43:53;9.90;;;7.70;;
65822;SDS011;52585;47.566;19.056;2022-10-18T06:46:27;14.00;;;7.80;;
65822;SDS011;52585;47.566;19.056;2022-10-18T06:48:53;13.00;;;8.30;;
65822;SDS011;52585;47.566;19.056;2022-10-18T06:51:18;14.10;;;8.00;;
65822;SDS011;52585;47.566;19.056;2022-10-18T06:53:44;17.00;;;8.20;;
65822;SDS011;52585;47.566;19.056;2022-10-18T06:56:11;14.30;;;8.10;;
65822;SDS011;52585;47.566;19.056;2022-10-18T06:58:38;19.20;;;8.80;;
65822;SDS011;52585;47.566;19.056;2022-10-18T07:01:06;12.30;;;8.50;;
65822;SDS011;52585;47.566;19.056;2022-10-18T07:03:35;11.50;;;8.00;;
65822;SDS011;52585;47.566;19.056;2022-10-18T07:06:05;14.60;;;8.50;;
65822;SDS011;52585;47.566;19.056;2022-10-18T07:08:39;9.50;;;8.00;;
65822;SDS011;52585;47.566;19.056;2022-10-18T07:11:06;16.30;;;9.10;;
65822;SDS011;52585;47.566;19.056;2022-10-18T07:13:38;13.00;;;7.90;;
65822;SDS011;52585;47.566;19.056;2022-10-18T07:16:09;13.00;;;9.80;;
65822;SDS011;52585;47.566;19.056;2022-10-18T07:18:42;10.70;;;8.10;;
65822;SDS011;52585;47.566;19.056;2022-10-18T07:21:11;10.60;;;8.40;;
65822;SDS011;52585;47.566;19.056;2022-10-18T07:23:40;9.90;;;7.90;;
65822;SDS011;52585;47.566;19.056;2022-10-18T07:28:41;11.60;;;8.40;;
65822;SDS011;52585;47.566;19.056;2022-10-18T07:31:11;13.10;;;8.40;;
65822;SDS011;52585;47.566;19.056;2022-10-18T07:33:37;12.80;;;8.20;;
65822;SDS011;52585;47.566;19.056;2022-10-18T07:36:05;12.30;;;8.80;;
65822;SDS011;52585;47.566;19.056;2022-10-18T07:38:33;14.00;;;9.10;;
65822;SDS011;52585;47.566;19.056;2022-10-18T07:41:02;10.20;;;8.20;;
65822;SDS011;52585;47.566;19.056;2022-10-18T07:43:31;10.70;;;8.50;;
65822;SDS011;52585;47.566;19.056;2022-10-18T07:46:00;9.00;;;8.10;;
65822;SDS011;52585;47.566;19.056;2022-10-18T07:48:28;10.70;;;8.90;;
65822;SDS011;52585;47.566;19.056;2022-10-18T07:50:57;11.00;;;8.40;;
65822;SDS011;52585;47.566;19.056;2022-10-18T07:53:27;12.00;;;9.00;;
65822;SDS011;52585;47.566;19.056;2022-10-18T07:56:09;10.80;;;8.80;;
65822;SDS011;52585;47.566;19.056;2022-10-18T07:58:41;15.60;;;9.10;;
65822;SDS011;52585;47.566;19.056;2022-10-18T08:01:18;15.90;;;8.60;;
65822;SDS011;52585;47.566;19.056;2022-10-18T08:03:52;15.60;;;9.00;;
65822;SDS011;52585;47.566;19.056;2022-10-18T08:06:19;12.10;;;9.30;;
65822;SDS011;52585;47.566;19.056;2022-10-18T08:08:47;26.00;;;9.80;;
65822;SDS011;52585;47.566;19.056;2022-10-18T08:11:18;18.80;;;9.70;;
65822;SDS011;52585;47.566;19.056;2022-10-18T08:13:46;14.70;;;10.00;;
65822;SDS011;52585;47.566;19.056;2022-10-18T08:16:20;14.60;;;11.30;;
65822;SDS011;52585;47.566;19.056;2022-10-18T08:18:51;14.50;;;9.50;;
65822;SDS011;52585;47.566;19.056;2022-10-18T08:21:19;12.70;;;9.80;;
65822;SDS011;52585;47.566;19.056;2022-10-18T08:23:46;15.90;;;10.20;;
65822;SDS011;52585;47.566;19.056;2022-10-18T08:26:16;14.80;;;9.40;;
65822;SDS011;52585;47.566;19.056;2022-10-18T08:28:44;18.60;;;10.70;;
65822;SDS011;52585;47.566;19.056;2022-10-18T08:31:13;16.20;;;10.70;;
65822;SDS011;52585;47.566;19.056;2022-10-18T08:33:45;13.20;;;10.40;;
65822;SDS011;52585;47.566;19.056;2022-10-18T08:36:14;16.70;;;10.60;;
65822;SDS011;52585;47.566;19.056;2022-10-18T08:38:42;17.00;;;10.10;;
65822;SDS011;52585;47.566;19.056;2022-10-18T08:41:35;18.10;;;10.10;;
65822;SDS011;52585;47.566;19.056;2022-10-18T08:44:26;11.90;;;10.10;;
65822;SDS011;52585;47.566;19.056;2022-10-18T08:47:02;16.10;;;10.70;;
65822;SDS011;52585;47.566;19.056;2022-10-18T08:49:47;13.70;;;10.00;;
65822;SDS011;52585;47.566;19.056;2022-10-18T08:52:27;18.10;;;11.10;;
65822;SDS011;52585;47.566;19.056;2022-10-18T08:55:01;13.80;;;10.80;;
65822;SDS011;52585;47.566;19.056;2022-10-18T08:57:33;18.80;;;10.90;;
65822;SDS011;52585;47.566;19.056;2022-10-18T09:00:07;19.20;;;12.10;;
65822;SDS011;52585;47.566;19.056;2022-10-18T09:03:20;19.70;;;12.10;;
65822;SDS011;52585;47.566;19.056;2022-10-18T09:09:38;19.00;;;11.90;;
65822;SDS011;52585;47.566;19.056;2022-10-18T09:17:55;15.50;;;11.80;;
65822;SDS011;52585;47.566;19.056;2022-10-18T09:20:47;17.00;;;12.00;;
65822;SDS011;52585;47.566;19.056;2022-10-18T09:26:46;16.20;;;10.70;;
65822;SDS011;52585;47.566;19.056;2022-10-18T09:35:23;14.90;;;10.00;;
65822;SDS011;52585;47.566;19.056;2022-10-18T09:38:00;17.80;;;10.20;;
65822;SDS011;52585;47.566;19.056;2022-10-18T09:40:31;13.80;;;9.30;;
65822;SDS011;52585;47.566;19.056;2022-10-18T09:43:16;17.20;;;8.60;;
65822;SDS011;52585;47.566;19.056;2022-10-18T09:45:47;9.40;;;7.60;;
65822;SDS011;52585;47.566;19.056;2022-10-18T09:48:28;21.90;;;7.70;;
65822;SDS011;52585;47.566;19.056;2022-10-18T09:51:16;18.10;;;7.10;;
65822;SDS011;52585;47.566;19.056;2022-10-18T09:56:24;14.00;;;6.80;;
65822;SDS011;52585;47.566;19.056;2022-10-18T09:58:54;9.60;;;5.80;;
65822;SDS011;52585;47.566;19.056;2022-10-18T10:01:22;8.90;;;5.80;;
65822;SDS011;52585;47.566;19.056;2022-10-18T10:03:50;11.60;;;6.30;;
65822;SDS011;52585;47.566;19.056;2022-10-18T10:06:28;14.70;;;6.30;;
65822;SDS011;52585;47.566;19.056;2022-10-18T10:09:04;8.20;;;5.20;;
65822;SDS011;52585;47.566;19.056;2022-10-18T10:11:43;9.20;;;6.00;;
65822;SDS011;52585;47.566;19.056;2022-10-18T10:14:20;13.60;;;5.70;;
65822;SDS011;52585;47.566;19.056;2022-10-18T10:16:51;13.90;;;5.40;;
65822;SDS011;52585;47.566;19.056;2022-10-18T10:19:32;6.90;;;4.80;;
65822;SDS011;52585;47.566;19.056;2022-10-18T10:22:11;10.60;;;5.20;;
65822;SDS011;52585;47.566;19.056;2022-10-18T10:24:53;11.30;;;5.50;;
65822;SDS011;52585;47.566;19.056;2022-10-18T10:27:42;7.00;;;4.70;;
65822;SDS011;52585;47.566;19.056;2022-10-18T10:30:23;6.80;;;5.20;;
65822;SDS011;52585;47.566;19.056;2022-10-18T10:32:58;10.00;;;4.80;;
65822;SDS011;52585;47.566;19.056;2022-10-18T10:35:38;9.70;;;4.90;;
65822;SDS011;52585;47.566;19.056;2022-10-18T10:38:06;8.20;;;4.80;;
65822;SDS011;52585;47.566;19.056;2022-10-18T10:40:45;10.70;;;4.80;;
65822;SDS011;52585;47.566;19.056;2022-10-18T10:46:18;10.30;;;5.10;;
65822;SDS011;52585;47.566;19.056;2022-10-18T10:54:34;9.70;;;5.60;;
65822;SDS011;52585;47.566;19.056;2022-10-18T10:56:55;5.50;;;4.70;;
65822;SDS011;52585;47.566;19.056;2022-10-18T10:59:27;7.80;;;4.70;;
65822;SDS011;52585;47.566;19.056;2022-10-18T11:04:54;12.90;;;4.80;;
65822;SDS011;52585;47.566;19.056;2022-10-18T11:07:42;10.30;;;4.80;;
65822;SDS011;52585;47.566;19.056;2022-10-18T11:15:32;4.70;;;3.70;;
65822;SDS011;52585;47.566;19.056;2022-10-18T11:20:54;5.50;;;4.00;;
65822;SDS011;52585;47.566;19.056;2022-10-18T11:23:30;5.10;;;4.30;;
65822;SDS011;52585;47.566;19.056;2022-10-18T11:35:46;6.70;;;4.30;;
65822;SDS011;52585;47.566;19.056;2022-10-18T11:43:36;6.30;;;3.70;;
65822;SDS011;52585;47.566;19.056;2022-10-18T11:46:32;5.30;;;3.80;;
65822;SDS011;52585;47.566;19.056;2022-10-18T11:55:22;7.20;;;3.80;;
65822;SDS011;52585;47.566;19.056;2022-10-18T12:06:56;9.80;;;3.40;;
65822;SDS011;52585;47.566;19.056;2022-10-18T12:09:40;5.10;;;3.60;;
65822;SDS011;52585;47.566;19.056;2022-10-18T12:12:31;7.70;;;3.40;;
65822;SDS011;52585;47.566;19.056;2022-10-18T12:15:13;4.80;;;3.80;;
65822;SDS011;52585;47.566;19.056;2022-10-18T12:17:48;4.50;;;3.40;;
65822;SDS011;52585;47.566;19.056;2022-10-18T12:20:26;6.70;;;3.40;;
65822;SDS011;52585;47.566;19.056;2022-10-18T12:25:24;5.30;;;3.80;;
65822;SDS011;52585;47.566;19.056;2022-10-18T12:28:11;7.70;;;3.60;;
65822;SDS011;52585;47.566;19.056;2022-10-18T12:30:53;6.90;;;3.80;;
65822;SDS011;52585;47.566;19.056;2022-10-18T12:33:26;5.30;;;3.60;;
65822;SDS011;52585;47.566;19.056;2022-10-18T12:38:57;10.60;;;3.30;;
65822;SDS011;52585;47.566;19.056;2022-10-18T12:41:31;8.70;;;3.40;;
65822;SDS011;52585;47.566;19.056;2022-10-18T12:44:05;8.70;;;3.40;;
65822;SDS011;52585;47.566;19.056;2022-10-18T12:46:53;8.20;;;3.60;;
65822;SDS011;52585;47.566;19.056;2022-10-18T12:49:33;5.50;;;3.80;;
65822;SDS011;52585;47.566;19.056;2022-10-18T12:52:05;8.10;;;3.90;;
65822;SDS011;52585;47.566;19.056;2022-10-18T13:11:36;7.00;;;3.10;;
65822;SDS011;52585;47.566;19.056;2022-10-18T13:23:29;5.40;;;3.50;;
65822;SDS011;52585;47.566;19.056;2022-10-18T13:33:14;11.40;;;3.20;;
65822;SDS011;52585;47.566;19.056;2022-10-18T13:35:57;4.70;;;3.20;;
65822;SDS011;52585;47.566;19.056;2022-10-18T13:38:36;5.30;;;3.40;;
65822;SDS011;52585;47.566;19.056;2022-10-18T13:41:17;9.00;;;2.90;;
65822;SDS011;52585;47.566;19.056;2022-10-18T14:01:15;5.90;;;2.90;;
65822;SDS011;52585;47.566;19.056;2022-10-18T14:06:43;4.40;;;3.30;;
65822;SDS011;52585;47.566;19.056;2022-10-18T14:09:32;5.20;;;3.30;;
65822;SDS011;52585;47.566;19.056;2022-10-18T14:12:13;3.80;;;2.90;;
65822;SDS011;52585;47.566;19.056;2022-10-18T14:17:46;10.90;;;3.90;;
65822;SDS011;52585;47.566;19.056;2022-10-18T14:25:40;9.30;;;2.90;;
65822;SDS011;52585;47.566;19.056;2022-10-18T14:28:20;6.00;;;3.00;;
65822;SDS011;52585;47.566;19.056;2022-10-18T14:31:04;6.10;;;2.90;;
65822;SDS011;52585;47.566;19.056;2022-10-18T14:34:09;7.90;;;3.10;;
65822;SDS011;52585;47.566;19.056;2022-10-18T14:36:40;3.10;;;2.80;;
65822;SDS011;52585;47.566;19.056;2022-10-18T14:39:21;6.20;;;3.10;;
65822;SDS011;52585;47.566;19.056;2022-10-18T14:41:54;2.90;;;2.60;;
65822;SDS011;52585;47.566;19.056;2022-10-18T14:44:29;4.90;;;3.20;;
65822;SDS011;52585;47.566;19.056;2022-10-18T14:47:21;4.40;;;3.10;;
65822;SDS011;52585;47.566;19.056;2022-10-18T14:49:49;9.40;;;3.10;;
65822;SDS011;52585;47.566;19.056;2022-10-18T14:52:22;8.50;;;2.90;;
65822;SDS011;52585;47.566;19.056;2022-10-18T14:54:54;7.20;;;2.80;;
65822;SDS011;52585;47.566;19.056;2022-10-18T14:57:31;3.60;;;2.70;;
65822;SDS011;52585;47.566;19.056;2022-10-18T15:00:02;5.10;;;2.50;;
65822;SDS011;52585;47.566;19.056;2022-10-18T15:02:35;3.60;;;2.50;;
65822;SDS011;52585;47.566;19.056;2022-10-18T15:07:42;4.80;;;2.50;;
65822;SDS011;52585;47.566;19.056;2022-10-18T15:10:24;4.90;;;3.00;;
65822;SDS011;52585;47.566;19.056;2022-10-18T15:12:54;4.00;;;2.80;;
65822;SDS011;52585;47.566;19.056;2022-10-18T15:15:29;5.40;;;2.50;;
65822;SDS011;52585;47.566;19.056;2022-10-18T15:17:58;6.00;;;3.00;;
65822;SDS011;52585;47.566;19.056;2022-10-18T15:22:53;8.20;;;3.60;;
65822;SDS011;52585;47.566;19.056;2022-10-18T15:25:39;24.50;;;15.40;;
65822;SDS011;52585;47.566;19.056;2022-10-18T15:28:04;17.80;;;9.40;;
65822;SDS011;52585;47.566;19.056;2022-10-18T15:30:37;9.00;;;6.60;;
65822;SDS011;52585;47.566;19.056;2022-10-18T15:33:07;9.10;;;5.00;;
65822;SDS011;52585;47.566;19.056;2022-10-18T15:35:45;8.20;;;4.60;;
65822;SDS011;52585;47.566;19.056;2022-10-18T15:40:45;5.80;;;3.10;;
65822;SDS011;52585;47.566;19.056;2022-10-18T15:45:56;7.40;;;3.40;;
65822;SDS011;52585;47.566;19.056;2022-10-18T15:48:36;6.00;;;3.30;;
65822;SDS011;52585;47.566;19.056;2022-10-18T15:51:06;4.30;;;3.00;;
65822;SDS011;52585;47.566;19.056;2022-10-18T15:56:31;7.90;;;3.80;;
65822;SDS011;52585;47.566;19.056;2022-10-18T15:59:00;12.30;;;4.40;;
65822;SDS011;52585;47.566;19.056;2022-10-18T16:01:42;15.90;;;5.90;;
65822;SDS011;52585;47.566;19.056;2022-10-18T16:04:28;7.30;;;5.00;;
65822;SDS011;52585;47.566;19.056;2022-10-18T16:06:57;14.70;;;6.60;;
65822;SDS011;52585;47.566;19.056;2022-10-18T16:09:30;17.90;;;6.70;;
65822;SDS011;52585;47.566;19.056;2022-10-18T16:11:56;20.50;;;8.00;;
65822;SDS011;52585;47.566;19.056;2022-10-18T16:14:35;22.20;;;9.30;;
65822;SDS011;52585;47.566;19.056;2022-10-18T16:17:05;27.90;;;12.20;;
65822;SDS011;52585;47.566;19.056;2022-10-18T16:19:32;30.30;;;12.90;;
65822;SDS011;52585;47.566;19.056;2022-10-18T16:21:59;38.70;;;16.00;;
65822;SDS011;52585;47.566;19.056;2022-10-18T16:24:28;33.10;;;17.90;;
65822;SDS011;52585;47.566;19.056;2022-10-18T16:26:54;37.20;;;19.10;;
65822;SDS011;52585;47.566;19.056;2022-10-18T16:29:22;38.10;;;17.60;;
65822;SDS011;52585;47.566;19.056;2022-10-18T16:31:56;37.10;;;19.40;;
65822;SDS011;52585;47.566;19.056;2022-10-18T16:34:25;43.60;;;20.80;;
65822;SDS011;52585;47.566;19.056;2022-10-18T16:36:54;40.00;;;20.90;;
65822;SDS011;52585;47.566;19.056;2022-10-18T16:39:21;39.90;;;19.40;;
65822;SDS011;52585;47.566;19.056;2022-10-18T16:41:50;30.10;;;17.90;;
65822;SDS011;52585;47.566;19.056;2022-10-18T16:44:16;34.20;;;18.90;;
65822;SDS011;52585;47.566;19.056;2022-10-18T16:46:44;33.70;;;18.00;;
65822;SDS011;52585;47.566;19.056;2022-10-18T16:49:18;32.90;;;17.60;;
65822;SDS011;52585;47.566;19.056;2022-10-18T16:51:48;39.20;;;15.90;;
65822;SDS011;52585;47.566;19.056;2022-10-18T16:54:15;32.50;;;13.50;;
65822;SDS011;52585;47.566;19.056;2022-10-18T16:56:41;22.70;;;13.60;;
65822;SDS011;52585;47.566;19.056;2022-10-18T16:59:23;24.30;;;13.10;;
65822;SDS011;52585;47.566;19.056;2022-10-18T17:01:51;27.30;;;12.40;;
65822;SDS011;52585;47.566;19.056;2022-10-18T17:04:17;27.90;;;12.20;;
65822;SDS011;52585;47.566;19.056;2022-10-18T17:06:43;27.30;;;12.40;;
65822;SDS011;52585;47.566;19.056;2022-10-18T17:09:11;21.00;;;10.80;;
65822;SDS011;52585;47.566;19.056;2022-10-18T17:11:38;23.00;;;11.80;;
65822;SDS011;52585;47.566;19.056;2022-10-18T17:14:04;17.20;;;10.60;;
65822;SDS011;52585;47.566;19.056;2022-10-18T17:16:32;21.20;;;11.30;;
65822;SDS011;52585;47.566;19.056;2022-10-18T17:19:02;21.60;;;10.80;;
65822;SDS011;52585;47.566;19.056;2022-10-18T17:21:30;21.80;;;9.60;;
65822;SDS011;52585;47.566;19.056;2022-10-18T17:23:57;24.30;;;9.90;;
65822;SDS011;52585;47.566;19.056;2022-10-18T17:26:26;18.10;;;9.70;;
65822;SDS011;52585;47.566;19.056;2022-10-18T17:28:54;16.90;;;9.70;;
65822;SDS011;52585;47.566;19.056;2022-10-18T17:31:22;20.00;;;8.90;;
65822;SDS011;52585;47.566;19.056;2022-10-18T17:33:48;20.10;;;9.60;;
65822;SDS011;52585;47.566;19.056;2022-10-18T17:36:14;26.40;;;9.70;;
65822;SDS011;52585;47.566;19.056;2022-10-18T17:38:40;17.90;;;9.30;;
65822;SDS011;52585;47.566;19.056;2022-10-18T17:41:07;21.10;;;10.20;;
65822;SDS011;52585;47.566;19.056;2022-10-18T17:43:36;18.90;;;8.90;;
65822;SDS011;52585;47.566;19.056;2022-10-18T17:46:02;18.40;;;10.40;;
65822;SDS011;52585;47.566;19.056;2022-10-18T17:48:29;19.90;;;10.00;;
65822;SDS011;52585;47.566;19.056;2022-10-18T17:50:55;23.10;;;9.80;;
65822;SDS011;52585;47.566;19.056;2022-10-18T17:53:23;17.00;;;9.80;;
65822;SDS011;52585;47.566;19.056;2022-10-18T17:55:58;12.90;;;8.20;;